< Typhoon 200313 2003 Season Typhoon 200315 >
Typhoon 200314 (MAEMI)
General InformationTrack Information on Google MapsDetailed Wind InformationAccess Analytics MapList of All Images || NewsDisaster Info.WeblogResourceGoogle EarthGE AnimationAtom FeedGeoJSON
Detalied Best Track (Time Zone = UTC)
Year Month Day Hour Lat. Long. Pressure (hPa) Wind (kt) Class Image Chart
2003 9 4 00 9.9 153.1 1008 0 2 Image Chart
2003 9 4 06 10.4 151.1 1006 0 2 Image Chart
2003 9 4 12 10.9 149.7 1006 0 2 Image Chart
2003 9 4 18 11.7 148.7 1004 0 2 Image Chart
2003 9 5 00 12.5 147.5 1004 0 2 Image Chart
2003 9 5 06 12.9 145.8 1004 0 2 Image Chart
2003 9 5 12 13.8 145.1 1004 0 2 Image Chart
2003 9 5 18 14.0 143.9 1002 0 2 Image Chart
2003 9 6 00 15.6 142.8 1000 0 2 Image Chart
2003 9 6 06 16.5 141.4 994 35 3 Image Chart
2003 9 6 12 16.8 139.9 994 35 3 Image Chart
2003 9 6 18 17.0 138.7 992 40 3 Image Chart
2003 9 7 00 17.8 138.3 992 40 3 Image Chart
2003 9 7 06 18.8 136.9 992 40 3 Image Chart
2003 9 7 12 19.1 135.9 990 45 3 Image Chart
2003 9 7 18 19.4 135.0 985 50 4 Image Chart
2003 9 8 00 19.7 133.9 980 55 4 Image Chart
2003 9 8 06 20.0 132.8 975 60 4 Image Chart
2003 9 8 12 20.4 132.0 975 60 4 Image Chart
2003 9 8 18 21.0 131.2 970 65 5 Image Chart
2003 9 9 00 22.0 130.4 960 70 5 Image Chart
2003 9 9 06 22.6 129.4 950 80 5 Image Chart
2003 9 9 12 22.9 128.7 940 85 5 Image Chart
2003 9 9 18 23.3 127.8 930 90 5 Image Chart
2003 9 10 00 23.6 127.2 925 95 5 Image Chart
2003 9 10 03 23.7 126.9 920 95 5 Image Chart
2003 9 10 06 24.0 126.6 910 100 5 Image Chart
2003 9 10 09 24.2 126.3 910 100 5 Image Chart
2003 9 10 12 24.3 126.0 910 105 5 Image Chart
2003 9 10 15 24.6 125.7 910 105 5 Image Chart
2003 9 10 18 24.7 125.4 910 105 5 Image Chart
2003 9 10 19 24.8 125.4 910 105 5 Image Chart
2003 9 10 21 25.0 125.3 910 105 5 Image Chart
2003 9 11 00 25.2 125.1 910 105 5 Image Chart
2003 9 11 03 25.5 125.2 920 95 5 Image Chart
2003 9 11 06 25.9 125.3 920 95 5 Image Chart
2003 9 11 09 26.3 125.4 925 95 5 Image Chart
2003 9 11 12 27.0 125.6 930 95 5 Image Chart
2003 9 11 15 27.8 125.7 935 90 5 Image Chart
2003 9 11 18 28.4 125.8 935 90 5 Image Chart
2003 9 11 21 29.5 126.1 935 90 5 Image Chart
2003 9 12 00 30.5 126.5 930 95 5 Image Chart
2003 9 12 06 32.7 127.1 935 90 5 Image Chart
2003 9 12 09 33.9 127.5 945 80 5 Image Chart
2003 9 12 12 34.9 128.3 955 75 5 Image Chart
2003 9 12 18 37.0 129.8 970 60 4 Image Chart
2003 9 13 00 39.1 131.8 975 55 4 Image Chart
2003 9 13 06 40.5 134.6 980 50 4 Image Chart
2003 9 13 09 41.5 136.9 980 50 4 Image Chart
2003 9 13 12 42.3 138.1 980 50 4 Image Chart
2003 9 13 15 43.2 140.0 980 50 4 Image Chart
2003 9 13 18 44.7 141.2 980 50 4 Image Chart
2003 9 13 21 46.0 143.5 984 0 6 Image Chart
2003 9 14 00 45.2 145.7 984 0 6 Image Chart
2003 9 14 06 46.1 147.5 988 0 6 Image Chart
2003 9 14 12 47.1 148.9 988 0 6 Image Chart
2003 9 14 18 48.2 150.0 988 0 6 Image Chart
2003 9 15 00 48.8 150.6 988 0 6 Image Chart
2003 9 15 06 49.0 151.1 992 0 6 Image Chart
2003 9 15 12 49.2 151.4 996 0 6 Image Chart
2003 9 15 18 48.9 152.5 996 0 6 Image Chart
2003 9 16 00 48.9 153.4 996 0 6 Image Chart
Japan Meteorological Agency Best Track Data | Correction Date : 2004-02-17
< Typhoon 200313 2003 Season Typhoon 200315 >

Help